Time;durP1;ratioP1;P1;durP2;ratioP2;P2;SDS_P1;SDS_P2;PMS_P1;PMS_P2;Temp;Humidity;BMP_temperature;BMP_pressure;BME280_temperature;BME280_humidity;BME280_pressure;Samples;Min_cycle;Max_cycle;Signal;HPM_P1;HPM_P2
2021/09/12 00:00:54;;;;;;;14.35;4.45;;;15.60;99.90;;;;;;2092003;28;20024;-69
2021/09/12 00:01:55;;;;;;;14.23;4.95;;;15.60;99.90;;;;;;2094428;28;20451;-69
2021/09/12 00:02:55;;;;;;;8.70;4.63;;;15.60;99.90;;;;;;2094679;28;20483;-69
2021/09/12 00:03:56;;;;;;;9.98;4.68;;;15.60;99.90;;;;;;2094854;28;20037;-69
2021/09/12 00:04:57;;;;;;;12.38;5.03;;;15.50;99.90;;;;;;2091935;28;20103;-69
2021/09/12 00:05:57;;;;;;;12.40;5.10;;;15.60;99.90;;;;;;2090228;28;20029;-69
2021/09/12 00:06:58;;;;;;;13.55;4.78;;;15.50;99.90;;;;;;2087277;28;20025;-71
2021/09/12 00:07:59;;;;;;;10.50;4.75;;;15.50;99.90;;;;;;2094517;28;20045;-69
2021/09/12 00:09:00;;;;;;;12.40;5.45;;;15.50;99.90;;;;;;2086226;28;20392;-70
2021/09/12 00:10:01;;;;;;;13.50;5.47;;;15.50;99.90;;;;;;2094819;28;20384;-70
2021/09/12 00:11:02;;;;;;;13.07;5.78;;;15.50;99.90;;;;;;2091230;28;20044;-70
2021/09/12 00:12:03;;;;;;;13.95;5.18;;;15.50;99.90;;;;;;2094645;28;20028;-70
2021/09/12 00:13:04;;;;;;;14.63;5.20;;;15.60;99.90;;;;;;2087526;28;20025;-70
2021/09/12 00:14:04;;;;;;;9.60;4.82;;;15.60;99.90;;;;;;2088672;28;20279;-70
2021/09/12 00:15:08;;;;;;;10.45;4.80;;;15.60;99.90;;;;;;2080088;28;20150;-70
2021/09/12 00:16:08;;;;;;;13.02;5.25;;;15.60;99.90;;;;;;2086509;28;20025;-71
2021/09/12 00:17:09;;;;;;;13.93;4.70;;;15.60;99.90;;;;;;2089687;28;20138;-69
2021/09/12 00:18:10;;;;;;;18.00;5.22;;;15.60;99.90;;;;;;2085709;28;20024;-70
2021/09/12 00:19:11;;;;;;;9.43;4.05;;;15.60;99.90;;;;;;2086201;28;20035;-69
2021/09/12 00:20:12;;;;;;;9.48;5.25;;;15.60;99.90;;;;;;2089699;28;20025;-71
2021/09/12 00:21:13;;;;;;;11.55;5.15;;;15.70;99.90;;;;;;2085785;28;20032;-70
2021/09/12 00:22:14;;;;;;;12.07;4.60;;;15.70;99.90;;;;;;2083850;28;20026;-69
2021/09/12 00:23:15;;;;;;;10.05;4.20;;;15.70;99.90;;;;;;2089867;28;20048;-69
2021/09/12 00:24:16;;;;;;;13.95;5.07;;;15.70;99.90;;;;;;2084132;28;20029;-69
2021/09/12 00:25:16;;;;;;;12.52;5.18;;;15.70;99.90;;;;;;2084435;28;20021;-70
2021/09/12 00:26:17;;;;;;;11.40;4.90;;;15.70;99.90;;;;;;2091436;28;20604;-71
2021/09/12 00:27:18;;;;;;;13.45;4.85;;;15.70;99.90;;;;;;2095126;28;20024;-69
2021/09/12 00:28:18;;;;;;;14.80;4.97;;;15.70;99.90;;;;;;2093027;28;20024;-69
2021/09/12 00:29:20;;;;;;;15.57;4.53;;;15.70;99.90;;;;;;2084676;28;20017;-70
2021/09/12 00:30:21;;;;;;;9.18;4.78;;;15.60;99.90;;;;;;2088725;28;20579;-70
2021/09/12 00:31:22;;;;;;;11.02;4.32;;;15.70;99.90;;;;;;2097561;28;20031;-69
2021/09/12 00:32:23;;;;;;;9.98;4.30;;;15.70;99.90;;;;;;2088897;28;20384;-69
2021/09/12 00:33:24;;;;;;;10.80;4.47;;;15.70;99.90;;;;;;2087829;28;20056;-70
2021/09/12 00:34:25;;;;;;;10.00;4.05;;;15.70;99.90;;;;;;2084271;28;20033;-69
2021/09/12 00:35:26;;;;;;;12.38;4.60;;;15.70;99.90;;;;;;2086360;28;20142;-71
2021/09/12 00:36:26;;;;;;;8.23;4.07;;;15.70;99.90;;;;;;2081037;28;20494;-69
2021/09/12 00:37:27;;;;;;;8.88;4.45;;;15.70;99.90;;;;;;2086150;28;20025;-70
2021/09/12 00:38:28;;;;;;;8.05;4.00;;;15.70;99.90;;;;;;2086228;28;20080;-69
2021/09/12 00:39:29;;;;;;;10.98;4.30;;;15.70;99.90;;;;;;2088653;28;20021;-69
2021/09/12 00:40:30;;;;;;;7.72;4.20;;;15.70;99.90;;;;;;2089602;28;20017;-70
2021/09/12 00:41:38;;;;;;;9.55;5.05;;;15.70;99.90;;;;;;2089637;28;20544;-69
2021/09/12 00:42:38;;;;;;;9.90;4.32;;;15.70;99.90;;;;;;2104813;28;20056;-71
2021/09/12 00:43:39;;;;;;;11.70;4.68;;;15.70;99.90;;;;;;2095316;28;20024;-69
2021/09/12 00:44:40;;;;;;;11.65;4.75;;;15.70;99.90;;;;;;2086608;28;20043;-69
2021/09/12 00:45:40;;;;;;;12.02;4.20;;;15.70;99.90;;;;;;2085562;28;20078;-70
2021/09/12 00:46:43;;;;;;;11.20;4.25;;;15.70;99.90;;;;;;2085739;28;20613;-70
2021/09/12 00:47:47;;;;;;;10.15;4.20;;;15.70;99.90;;;;;;2087219;28;20516;-69
2021/09/12 00:48:47;;;;;;;9.57;4.22;;;15.70;99.90;;;;;;2088974;28;20420;-70
2021/09/12 00:49:48;;;;;;;11.25;3.92;;;15.70;99.90;;;;;;2081009;28;20025;-69
2021/09/12 00:50:50;;;;;;;12.48;4.07;;;15.70;99.90;;;;;;2088230;28;20422;-70
2021/09/12 00:51:51;;;;;;;9.98;4.35;;;15.70;99.90;;;;;;2089634;28;20526;-69
2021/09/12 00:52:55;;;;;;;12.03;4.27;;;15.60;99.90;;;;;;2085973;28;20486;-70
2021/09/12 00:53:58;;;;;;;10.68;3.85;;;15.60;99.90;;;;;;2079517;28;20844;-70
2021/09/12 00:55:01;;;;;;;10.68;3.92;;;15.60;99.90;;;;;;2088099;28;20021;-70
2021/09/12 00:56:02;;;;;;;7.97;3.65;;;15.70;99.90;;;;;;2089245;28;20021;-70
2021/09/12 00:57:06;;;;;;;7.60;4.32;;;15.70;99.90;;;;;;2086518;28;20704;-70
2021/09/12 00:58:10;;;;;;;7.13;3.47;;;15.70;99.90;;;;;;2088594;28;20025;-69
2021/09/12 00:59:14;;;;;;;9.48;3.67;;;15.60;99.90;;;;;;2085959;28;20071;-69
2021/09/12 01:00:15;;;;;;;11.25;4.72;;;15.70;99.90;;;;;;2081929;28;20026;-69
2021/09/12 01:01:16;;;;;;;7.70;3.58;;;15.70;99.90;;;;;;2088956;28;20028;-70
2021/09/12 01:02:18;;;;;;;8.38;3.90;;;15.70;99.90;;;;;;2089644;28;20019;-69
2021/09/12 01:03:19;;;;;;;6.70;3.80;;;15.70;99.90;;;;;;2081552;28;20052;-70
2021/09/12 01:04:20;;;;;;;10.73;4.47;;;15.70;99.90;;;;;;2085120;28;20029;-69
2021/09/12 01:05:20;;;;;;;17.40;4.40;;;15.70;99.90;;;;;;2085399;28;20104;-70
2021/09/12 01:06:22;;;;;;;12.43;4.90;;;15.70;99.90;;;;;;2084760;28;20013;-69
2021/09/12 01:07:23;;;;;;;8.75;4.22;;;15.70;99.90;;;;;;2080354;28;20021;-70
2021/09/12 01:08:23;;;;;;;11.75;4.65;;;15.70;99.90;;;;;;2080470;28;20049;-73
2021/09/12 01:09:24;;;;;;;10.35;4.38;;;15.70;99.90;;;;;;2083018;28;20029;-71
2021/09/12 01:10:25;;;;;;;7.30;4.20;;;15.70;99.90;;;;;;2085880;28;20017;-70
2021/09/12 01:11:26;;;;;;;12.75;4.75;;;15.70;99.90;;;;;;2087200;28;20116;-69
2021/09/12 01:12:27;;;;;;;8.10;4.18;;;15.70;99.90;;;;;;2089010;28;20061;-70
2021/09/12 01:13:27;;;;;;;10.85;4.35;;;15.70;99.90;;;;;;2080546;28;20029;-70
2021/09/12 01:14:29;;;;;;;10.40;4.30;;;15.70;99.90;;;;;;2084774;28;20583;-70
2021/09/12 01:15:31;;;;;;;8.88;4.10;;;15.70;99.90;;;;;;2084706;28;20052;-70
2021/09/12 01:16:31;;;;;;;10.77;4.73;;;15.80;99.90;;;;;;2085331;28;20079;-70
2021/09/12 01:17:33;;;;;;;11.60;4.50;;;15.70;99.90;;;;;;2088078;28;21843;-70
2021/09/12 01:18:33;;;;;;;11.77;5.10;;;15.70;99.90;;;;;;2081203;28;20029;-70
2021/09/12 01:19:35;;;;;;;10.07;4.35;;;15.80;99.90;;;;;;2084499;28;20033;-70
2021/09/12 01:20:35;;;;;;;14.07;4.25;;;15.80;99.90;;;;;;2084456;28;20112;-70
2021/09/12 01:21:36;;;;;;;15.07;4.60;;;15.80;99.90;;;;;;2084237;28;20036;-70
2021/09/12 01:22:37;;;;;;;10.25;4.22;;;15.80;99.90;;;;;;2088828;28;20056;-71
2021/09/12 01:23:37;;;;;;;10.60;4.53;;;15.80;99.90;;;;;;2079614;28;20112;-70
2021/09/12 01:24:38;;;;;;;10.95;4.28;;;15.80;99.90;;;;;;2082078;28;20400;-70
2021/09/12 01:25:39;;;;;;;10.68;4.50;;;15.90;99.90;;;;;;2085089;28;20017;-70
2021/09/12 01:26:40;;;;;;;12.95;4.82;;;15.90;99.90;;;;;;2087957;28;20025;-70
2021/09/12 01:27:40;;;;;;;10.95;4.32;;;15.90;99.90;;;;;;2080616;28;20021;-70
2021/09/12 01:28:42;;;;;;;10.13;4.25;;;15.90;99.90;;;;;;2080331;28;20045;-70
2021/09/12 01:29:43;;;;;;;11.77;4.63;;;15.90;99.90;;;;;;2083931;28;20025;-70
2021/09/12 01:30:44;;;;;;;11.82;4.85;;;15.90;99.90;;;;;;2082770;28;20025;-72
2021/09/12 01:31:45;;;;;;;11.43;4.80;;;15.90;99.90;;;;;;2080938;28;20021;-69
2021/09/12 01:32:46;;;;;;;10.57;5.07;;;15.90;99.90;;;;;;2083353;28;20527;-69
2021/09/12 01:33:46;;;;;;;12.43;4.25;;;15.90;99.90;;;;;;2084932;28;20037;-69
2021/09/12 01:34:47;;;;;;;15.70;5.43;;;15.90;99.90;;;;;;2081349;28;20032;-70
2021/09/12 01:35:48;;;;;;;9.18;4.57;;;15.90;99.90;;;;;;2080408;28;20021;-70
2021/09/12 01:36:48;;;;;;;11.35;4.90;;;15.90;99.90;;;;;;2074004;28;20021;-70
2021/09/12 01:37:49;;;;;;;12.52;4.55;;;15.90;99.90;;;;;;2085170;28;20032;-71
2021/09/12 01:38:50;;;;;;;14.07;4.80;;;15.90;99.90;;;;;;2085963;28;20033;-70
2021/09/12 01:39:51;;;;;;;8.98;4.60;;;15.90;99.90;;;;;;2088011;28;20412;-70
2021/09/12 01:40:52;;;;;;;10.45;4.22;;;15.90;99.90;;;;;;2081734;28;20041;-70
2021/09/12 01:41:52;;;;;;;15.60;4.75;;;15.90;99.90;;;;;;2084488;28;20026;-70
2021/09/12 01:42:53;;;;;;;12.98;5.57;;;15.90;99.90;;;;;;2083580;28;20018;-70
2021/09/12 01:43:57;;;;;;;12.88;4.85;;;15.90;99.90;;;;;;2086467;28;20052;-70
2021/09/12 01:44:57;;;;;;;11.38;4.90;;;15.90;99.90;;;;;;2088831;28;20070;-70
2021/09/12 01:45:58;;;;;;;9.68;4.70;;;15.90;99.90;;;;;;2087158;28;20044;-72
2021/09/12 01:46:59;;;;;;;13.20;5.28;;;15.90;99.90;;;;;;2089416;28;20092;-70
2021/09/12 01:48:00;;;;;;;12.80;5.22;;;15.90;99.90;;;;;;2080377;28;20018;-71
2021/09/12 01:49:03;;;;;;;11.05;4.90;;;15.90;99.90;;;;;;2081448;28;20045;-71
2021/09/12 01:50:05;;;;;;;14.63;6.07;;;15.90;99.90;;;;;;2089481;28;20025;-70
2021/09/12 01:51:06;;;;;;;12.40;5.72;;;15.90;99.90;;;;;;2084110;28;20019;-70
2021/09/12 01:52:10;;;;;;;12.52;5.25;;;15.90;99.90;;;;;;2084096;28;20032;-70
2021/09/12 01:53:11;;;;;;;9.13;4.95;;;15.90;99.90;;;;;;2087025;28;20032;-70
2021/09/12 01:54:12;;;;;;;12.70;5.43;;;15.90;99.90;;;;;;2083869;28;20415;-70
2021/09/12 01:55:12;;;;;;;14.18;5.10;;;15.90;99.90;;;;;;2082933;28;20066;-70
2021/09/12 01:56:14;;;;;;;10.48;5.50;;;16.00;99.90;;;;;;2084800;28;20025;-71
2021/09/12 01:57:15;;;;;;;10.65;4.95;;;15.90;99.90;;;;;;2080294;28;20091;-71
2021/09/12 01:58:16;;;;;;;11.93;4.93;;;15.90;99.90;;;;;;2077157;28;20034;-70
2021/09/12 01:59:17;;;;;;;13.35;4.60;;;15.90;99.90;;;;;;2080308;28;20049;-70
2021/09/12 02:00:18;;;;;;;9.00;4.65;;;15.90;99.90;;;;;;2083934;28;20029;-70
2021/09/12 02:01:19;;;;;;;10.68;4.60;;;15.90;99.90;;;;;;2084075;28;20492;-70
2021/09/12 02:02:20;;;;;;;12.82;4.45;;;15.90;99.90;;;;;;2080212;28;20136;-70
2021/09/12 02:03:20;;;;;;;7.50;4.68;;;15.90;99.90;;;;;;2075957;28;20033;-70
2021/09/12 02:04:21;;;;;;;13.45;4.40;;;15.90;99.90;;;;;;2080241;28;20493;-70
2021/09/12 02:05:22;;;;;;;9.38;4.30;;;15.90;99.90;;;;;;2082054;28;20013;-70
2021/09/12 02:06:22;;;;;;;10.85;4.40;;;15.90;99.90;;;;;;2084332;28;20131;-71
2021/09/12 02:07:23;;;;;;;9.57;4.35;;;15.90;99.90;;;;;;2081885;28;20021;-70
2021/09/12 02:08:24;;;;;;;10.88;5.15;;;15.80;99.90;;;;;;2083570;28;20017;-70
2021/09/12 02:09:27;;;;;;;11.63;5.20;;;15.80;99.90;;;;;;2080768;28;20492;-70
2021/09/12 02:10:28;;;;;;;11.52;4.93;;;15.80;99.90;;;;;;2087827;28;20525;-71
2021/09/12 02:11:29;;;;;;;8.82;4.70;;;15.80;99.90;;;;;;2082391;28;20508;-70
2021/09/12 02:12:30;;;;;;;10.95;5.30;;;15.80;99.90;;;;;;2080977;28;20034;-70
2021/09/12 02:13:31;;;;;;;8.65;4.85;;;15.70;99.90;;;;;;2085219;28;20021;-70
2021/09/12 02:14:31;;;;;;;14.13;5.10;;;15.70;99.90;;;;;;2088462;28;20036;-71
2021/09/12 02:15:32;;;;;;;8.50;4.93;;;15.60;99.90;;;;;;2081058;28;20049;-70
2021/09/12 02:16:33;;;;;;;12.45;5.25;;;15.60;99.90;;;;;;2082705;28;20084;-71
2021/09/12 02:17:34;;;;;;;9.98;4.57;;;15.60;99.90;;;;;;2085743;28;20043;-70
2021/09/12 02:18:34;;;;;;;15.65;5.43;;;15.50;99.90;;;;;;2080727;28;20063;-70
2021/09/12 02:19:35;;;;;;;9.13;4.72;;;15.50;99.90;;;;;;2087415;28;20027;-71
2021/09/12 02:20:36;;;;;;;13.60;4.90;;;15.50;99.90;;;;;;2087079;28;20052;-70
2021/09/12 02:21:37;;;;;;;17.48;5.72;;;15.40;99.90;;;;;;2082899;28;20037;-70
2021/09/12 02:22:37;;;;;;;8.82;4.60;;;15.40;99.90;;;;;;2088537;28;20082;-70
2021/09/12 02:23:38;;;;;;;16.80;5.43;;;15.40;99.90;;;;;;2081108;28;20021;-70
2021/09/12 02:24:39;;;;;;;10.70;5.00;;;15.30;99.90;;;;;;2081963;28;20508;-70
2021/09/12 02:25:39;;;;;;;14.82;4.95;;;15.30;99.90;;;;;;2086814;28;20495;-70
2021/09/12 02:26:40;;;;;;;13.52;5.70;;;15.30;99.90;;;;;;2087891;28;20108;-72
2021/09/12 02:27:41;;;;;;;13.60;5.55;;;15.30;99.90;;;;;;2084129;28;20017;-70
2021/09/12 02:28:42;;;;;;;15.43;5.05;;;15.30;99.90;;;;;;2080795;28;20075;-71
2021/09/12 02:29:43;;;;;;;12.30;5.15;;;15.30;99.90;;;;;;2080623;28;20674;-71
2021/09/12 02:30:43;;;;;;;11.27;4.68;;;15.20;99.90;;;;;;2079756;28;20021;-71
2021/09/12 02:31:44;;;;;;;10.07;4.90;;;15.20;99.90;;;;;;2080286;28;20021;-70
2021/09/12 02:32:45;;;;;;;10.63;5.00;;;15.20;99.90;;;;;;2081162;28;20049;-71
2021/09/12 02:33:45;;;;;;;11.95;5.20;;;15.20;99.90;;;;;;2082240;28;20021;-71
2021/09/12 02:34:46;;;;;;;13.30;4.93;;;15.20;99.90;;;;;;2084875;28;20033;-71
2021/09/12 02:35:47;;;;;;;10.20;4.97;;;15.20;99.90;;;;;;2081499;28;20022;-71
2021/09/12 02:36:48;;;;;;;13.45;5.38;;;15.20;99.90;;;;;;2071684;28;20117;-71
2021/09/12 02:37:48;;;;;;;10.77;4.72;;;15.10;99.90;;;;;;2080010;28;20025;-70
2021/09/12 02:38:49;;;;;;;9.70;5.20;;;15.10;99.90;;;;;;2079747;28;20033;-71
2021/09/12 02:39:50;;;;;;;11.73;4.72;;;15.10;99.90;;;;;;2085192;28;20041;-71
2021/09/12 02:40:50;;;;;;;12.43;5.47;;;15.10;99.90;;;;;;2079929;28;20033;-71
2021/09/12 02:41:51;;;;;;;10.05;5.22;;;15.10;99.90;;;;;;2088753;28;20021;-71
2021/09/12 02:42:52;;;;;;;12.25;5.63;;;15.10;99.90;;;;;;2088306;28;20021;-71
2021/09/12 02:43:53;;;;;;;12.88;5.28;;;15.10;99.90;;;;;;2082288;28;20022;-71
2021/09/12 02:44:53;;;;;;;17.85;5.75;;;15.10;99.90;;;;;;2080937;28;20048;-71
2021/09/12 02:45:54;;;;;;;13.50;5.35;;;15.10;99.90;;;;;;2085521;28;20017;-71
2021/09/12 02:46:55;;;;;;;16.80;6.20;;;15.10;99.90;;;;;;2088798;28;20025;-72
2021/09/12 02:47:55;;;;;;;11.73;5.28;;;15.10;99.90;;;;;;2085125;28;20026;-71
2021/09/12 02:48:56;;;;;;;13.40;5.05;;;15.10;99.90;;;;;;2089003;28;20021;-71
2021/09/12 02:49:57;;;;;;;11.40;4.40;;;15.10;99.90;;;;;;2084673;28;20062;-71
2021/09/12 02:50:57;;;;;;;8.68;4.45;;;15.20;99.90;;;;;;2086314;28;20052;-71
2021/09/12 02:51:58;;;;;;;11.57;5.28;;;15.10;99.90;;;;;;2088398;28;20025;-71
2021/09/12 02:52:59;;;;;;;9.70;4.88;;;15.10;99.90;;;;;;2080471;28;20033;-71
2021/09/12 02:53:59;;;;;;;12.60;5.00;;;15.10;99.90;;;;;;2081562;28;20031;-71
2021/09/12 02:55:00;;;;;;;12.90;5.25;;;15.10;99.90;;;;;;2079874;28;20052;-71
2021/09/12 02:56:01;;;;;;;8.15;4.40;;;15.10;99.90;;;;;;2083518;28;20040;-71
2021/09/12 02:57:01;;;;;;;11.40;5.35;;;15.10;99.90;;;;;;2083015;28;20040;-71
2021/09/12 02:58:02;;;;;;;10.55;4.50;;;15.20;99.90;;;;;;2084631;28;20053;-71
2021/09/12 02:59:03;;;;;;;10.90;4.70;;;15.20;99.90;;;;;;2083574;28;20052;-71
2021/09/12 03:00:04;;;;;;;13.50;5.43;;;15.20;99.90;;;;;;2084562;28;20032;-70
2021/09/12 03:01:05;;;;;;;12.02;4.63;;;15.20;99.90;;;;;;2083484;28;20040;-71
2021/09/12 03:02:05;;;;;;;9.32;4.32;;;15.20;99.90;;;;;;2086026;28;20041;-71
2021/09/12 03:03:06;;;;;;;16.80;4.70;;;15.10;99.90;;;;;;2084631;28;20021;-71
2021/09/12 03:04:07;;;;;;;11.48;4.28;;;15.10;99.90;;;;;;2084933;28;20021;-71
2021/09/12 03:05:08;;;;;;;12.07;4.55;;;15.10;99.90;;;;;;2079775;28;20405;-70
2021/09/12 03:06:08;;;;;;;12.80;4.50;;;15.10;99.90;;;;;;2080664;28;20108;-71
2021/09/12 03:07:09;;;;;;;11.18;4.80;;;15.10;99.90;;;;;;2080097;28;20029;-71
2021/09/12 03:08:10;;;;;;;12.52;4.45;;;15.00;99.90;;;;;;2080124;28;20025;-71
2021/09/12 03:09:10;;;;;;;6.82;3.92;;;15.00;99.90;;;;;;2087273;28;20041;-70
2021/09/12 03:10:11;;;;;;;9.18;4.30;;;15.00;99.90;;;;;;2079414;28;20026;-71
2021/09/12 03:11:12;;;;;;;10.02;4.03;;;14.90;99.90;;;;;;2078788;28;20489;-72
2021/09/12 03:12:13;;;;;;;14.32;5.25;;;14.90;99.90;;;;;;2081334;28;20458;-70
2021/09/12 03:13:13;;;;;;;14.27;4.57;;;14.90;99.90;;;;;;2087192;28;20029;-70
2021/09/12 03:14:14;;;;;;;8.68;4.40;;;14.90;99.90;;;;;;2086061;28;20432;-70
2021/09/12 03:15:15;;;;;;;10.43;4.20;;;14.90;99.90;;;;;;2085248;28;20499;-71
2021/09/12 03:16:17;;;;;;;9.10;4.50;;;14.90;99.90;;;;;;2085299;28;20064;-70
2021/09/12 03:17:18;;;;;;;8.90;4.25;;;14.90;99.90;;;;;;2085129;28;20048;-71
2021/09/12 03:18:19;;;;;;;7.35;4.07;;;14.90;99.90;;;;;;2069563;28;20242;-71
2021/09/12 03:19:20;;;;;;;13.30;4.65;;;14.90;99.90;;;;;;2085861;28;20025;-70
2021/09/12 03:20:20;;;;;;;13.75;4.03;;;14.90;99.90;;;;;;2081302;28;20028;-71
2021/09/12 03:21:21;;;;;;;10.93;4.43;;;14.90;99.90;;;;;;2084987;28;20516;-70
2021/09/12 03:22:22;;;;;;;9.68;4.82;;;14.90;99.90;;;;;;2079526;28;20729;-71
2021/09/12 03:23:22;;;;;;;11.60;4.50;;;14.90;99.90;;;;;;2085276;28;20052;-70
2021/09/12 03:24:23;;;;;;;10.15;4.45;;;14.90;99.90;;;;;;2083932;28;20014;-71
2021/09/12 03:25:24;;;;;;;8.20;4.05;;;14.90;99.90;;;;;;2075619;28;20025;-70
2021/09/12 03:26:24;;;;;;;10.38;4.22;;;14.90;99.90;;;;;;2088101;28;20037;-72
2021/09/12 03:27:25;;;;;;;15.30;4.28;;;15.00;99.90;;;;;;2084552;28;20060;-72
2021/09/12 03:28:26;;;;;;;9.23;4.32;;;15.00;99.90;;;;;;2079504;28;20651;-72
2021/09/12 03:29:26;;;;;;;9.25;3.75;;;15.00;99.90;;;;;;2084434;28;20485;-71
2021/09/12 03:30:27;;;;;;;10.45;4.45;;;15.00;99.90;;;;;;2082337;28;20382;-71
2021/09/12 03:31:28;;;;;;;10.73;3.90;;;15.00;99.90;;;;;;2086380;28;20147;-71
2021/09/12 03:32:29;;;;;;;11.83;4.00;;;15.00;99.90;;;;;;2088441;28;20045;-71
2021/09/12 03:33:30;;;;;;;10.73;3.83;;;15.00;99.90;;;;;;2083105;28;20260;-71
2021/09/12 03:34:31;;;;;;;9.60;4.28;;;15.00;99.90;;;;;;2078893;28;20108;-71
2021/09/12 03:35:32;;;;;;;9.75;4.03;;;15.00;99.90;;;;;;2088039;28;20025;-72
2021/09/12 03:36:32;;;;;;;8.43;4.13;;;15.00;99.90;;;;;;2082845;28;20489;-71
2021/09/12 03:37:33;;;;;;;7.45;3.85;;;15.00;99.90;;;;;;2080179;28;20022;-70
2021/09/12 03:38:34;;;;;;;10.38;4.32;;;15.00;99.90;;;;;;2079521;28;20022;-70
2021/09/12 03:39:34;;;;;;;12.13;4.20;;;15.00;99.90;;;;;;2080152;28;20064;-70
2021/09/12 03:40:35;;;;;;;10.57;3.97;;;15.00;99.90;;;;;;2081571;28;20024;-70
2021/09/12 03:41:36;;;;;;;11.05;3.80;;;15.00;99.90;;;;;;2088544;28;20037;-71
2021/09/12 03:42:37;;;;;;;9.07;3.92;;;15.00;99.90;;;;;;2081743;28;20030;-71
2021/09/12 03:43:38;;;;;;;7.32;3.85;;;15.00;99.90;;;;;;2086716;28;20108;-70
2021/09/12 03:44:38;;;;;;;11.15;4.03;;;15.00;99.90;;;;;;2087392;28;20029;-71
2021/09/12 03:45:39;;;;;;;8.68;3.88;;;15.00;99.90;;;;;;2090548;28;20532;-71
2021/09/12 03:46:40;;;;;;;9.15;3.88;;;15.00;99.90;;;;;;2080394;28;20388;-71
2021/09/12 03:47:41;;;;;;;7.57;4.43;;;15.00;99.90;;;;;;2079716;28;20017;-72
2021/09/12 03:48:41;;;;;;;9.82;4.38;;;15.10;99.90;;;;;;2080423;28;20421;-72
2021/09/12 03:49:43;;;;;;;14.45;4.60;;;15.10;99.90;;;;;;2082616;28;20018;-71
2021/09/12 03:50:43;;;;;;;12.07;5.00;;;15.10;99.90;;;;;;2081602;28;20140;-72
2021/09/12 03:51:44;;;;;;;11.25;4.65;;;15.10;99.90;;;;;;2090006;28;20335;-70
2021/09/12 03:52:44;;;;;;;16.02;5.20;;;15.00;99.90;;;;;;2075678;28;20033;-71
2021/09/12 03:53:45;;;;;;;9.90;4.57;;;15.00;99.90;;;;;;2073282;28;20085;-70
2021/09/12 03:54:46;;;;;;;16.67;5.55;;;15.00;99.90;;;;;;2083285;28;20075;-72
2021/09/12 03:55:46;;;;;;;13.07;5.40;;;15.00;99.90;;;;;;2083495;28;20039;-70
2021/09/12 03:56:47;;;;;;;10.35;4.80;;;15.00;99.90;;;;;;2082017;28;20028;-71
2021/09/12 03:57:49;;;;;;;12.55;5.30;;;15.00;99.90;;;;;;2081678;28;20465;-71
2021/09/12 03:58:49;;;;;;;14.38;5.00;;;15.00;99.90;;;;;;2082162;28;20021;-71
2021/09/12 03:59:53;;;;;;;11.27;5.18;;;15.00;99.90;;;;;;2089123;28;20056;-71
2021/09/12 04:00:54;;;;;;;15.75;4.85;;;15.00;99.90;;;;;;2080985;28;20030;-70
2021/09/12 04:01:54;;;;;;;9.98;4.25;;;15.00;99.90;;;;;;2081302;28;20141;-72
2021/09/12 04:02:55;;;;;;;6.60;3.20;;;15.00;99.90;;;;;;2085941;28;20522;-71
2021/09/12 04:03:56;;;;;;;6.43;3.10;;;15.10;99.90;;;;;;2082678;28;20421;-71
2021/09/12 04:04:56;;;;;;;5.47;2.75;;;15.10;99.90;;;;;;2089127;28;20013;-71
2021/09/12 04:05:57;;;;;;;10.27;3.03;;;15.10;99.90;;;;;;2088057;28;20032;-72
2021/09/12 04:06:58;;;;;;;5.45;2.42;;;15.20;99.90;;;;;;2081871;28;20021;-71
2021/09/12 04:07:58;;;;;;;7.63;2.92;;;15.20;99.90;;;;;;2086361;28;20040;-71
2021/09/12 04:08:59;;;;;;;6.88;2.53;;;15.20;99.90;;;;;;2086970;28;20013;-72
2021/09/12 04:10:00;;;;;;;8.15;3.00;;;15.30;99.90;;;;;;2084353;28;20025;-71
2021/09/12 04:11:00;;;;;;;5.57;3.08;;;15.30;99.90;;;;;;2087450;28;20021;-72
2021/09/12 04:12:01;;;;;;;9.32;3.05;;;15.30;99.90;;;;;;2088925;28;20028;-72
2021/09/12 04:13:02;;;;;;;6.40;2.70;;;15.30;99.90;;;;;;2084471;28;20025;-71
2021/09/12 04:14:02;;;;;;;8.45;2.85;;;15.30;99.90;;;;;;2089623;28;20100;-71
2021/09/12 04:15:04;;;;;;;11.38;3.55;;;15.30;99.90;;;;;;2083024;28;20017;-72
2021/09/12 04:16:04;;;;;;;6.68;3.40;;;15.30;99.90;;;;;;2080366;28;20043;-71
2021/09/12 04:17:05;;;;;;;8.27;3.00;;;15.30;99.90;;;;;;2088891;28;20029;-72
2021/09/12 04:18:06;;;;;;;5.57;2.95;;;15.30;99.90;;;;;;2086131;28;20658;-71
2021/09/12 04:19:06;;;;;;;6.28;2.75;;;15.30;99.90;;;;;;2081109;28;20057;-71
2021/09/12 04:20:08;;;;;;;9.02;2.90;;;15.30;99.90;;;;;;2085470;28;20111;-71
2021/09/12 04:21:09;;;;;;;8.27;2.20;;;15.30;99.90;;;;;;2084180;28;20108;-71
2021/09/12 04:22:09;;;;;;;6.20;2.22;;;15.30;99.90;;;;;;2085940;28;20029;-71
2021/09/12 04:23:10;;;;;;;6.38;2.65;;;15.40;99.90;;;;;;2097856;28;20651;-71
2021/09/12 04:24:11;;;;;;;9.20;2.65;;;15.40;99.90;;;;;;2086695;28;20084;-72
2021/09/12 04:25:12;;;;;;;4.65;2.50;;;15.40;99.90;;;;;;2086913;28;20017;-71
2021/09/12 04:26:12;;;;;;;7.40;2.50;;;15.40;99.90;;;;;;2089534;28;20044;-72
2021/09/12 04:27:15;;;;;;;5.15;1.90;;;15.40;99.90;;;;;;2084703;28;20017;-71
2021/09/12 04:28:16;;;;;;;6.68;2.28;;;15.50;99.90;;;;;;2081101;28;20045;-71
2021/09/12 04:29:17;;;;;;;8.15;2.58;;;15.50;99.90;;;;;;2083422;28;20012;-71
2021/09/12 04:30:18;;;;;;;3.95;1.95;;;15.50;99.90;;;;;;2088699;28;20607;-71
2021/09/12 04:31:18;;;;;;;4.25;1.85;;;15.50;99.90;;;;;;2081875;28;20029;-71
2021/09/12 04:32:19;;;;;;;8.93;2.38;;;15.50;99.90;;;;;;2083578;28;20021;-71
2021/09/12 04:33:20;;;;;;;4.32;1.95;;;15.50;99.90;;;;;;2080965;28;20022;-70
2021/09/12 04:34:20;;;;;;;5.13;2.17;;;15.50;99.90;;;;;;2086724;28;20117;-71
2021/09/12 04:35:21;;;;;;;3.00;1.98;;;15.50;99.90;;;;;;2078625;28;20035;-71
2021/09/12 04:36:22;;;;;;;6.03;2.40;;;15.50;99.90;;;;;;2084965;28;20112;-72
2021/09/12 04:37:22;;;;;;;7.72;2.35;;;15.50;99.90;;;;;;2086316;28;20108;-71
2021/09/12 04:38:23;;;;;;;5.30;2.30;;;15.50;99.90;;;;;;2089163;28;20021;-71
2021/09/12 04:39:24;;;;;;;5.47;2.17;;;15.50;99.90;;;;;;2081679;28;20017;-70
2021/09/12 04:40:25;;;;;;;4.72;2.30;;;15.50;99.90;;;;;;2080673;28;20068;-71
2021/09/12 04:41:25;;;;;;;7.32;2.20;;;15.40;99.90;;;;;;2089311;28;20036;-71
2021/09/12 04:42:26;;;;;;;6.05;2.60;;;15.40;99.90;;;;;;2088110;28;20032;-72
2021/09/12 04:43:27;;;;;;;3.83;1.90;;;15.40;99.90;;;;;;2089709;28;20596;-71
2021/09/12 04:44:28;;;;;;;3.20;2.17;;;15.30;99.90;;;;;;2082371;28;20080;-71
2021/09/12 04:45:29;;;;;;;7.00;2.30;;;15.30;99.90;;;;;;2083143;28;20096;-72
2021/09/12 04:46:30;;;;;;;6.40;1.95;;;15.30;99.90;;;;;;2085503;28;20037;-72
2021/09/12 04:47:31;;;;;;;6.15;2.03;;;15.20;99.90;;;;;;2084343;28;20033;-71
2021/09/12 04:48:32;;;;;;;5.50;1.80;;;15.20;99.90;;;;;;2079671;28;20083;-71
2021/09/12 04:49:32;;;;;;;6.00;2.08;;;15.10;99.90;;;;;;2084265;28;20090;-72
2021/09/12 04:50:33;;;;;;;9.23;2.15;;;15.10;99.90;;;;;;2088323;28;20053;-71
2021/09/12 04:51:34;;;;;;;6.80;2.35;;;15.10;99.90;;;;;;2084282;28;20021;-71
2021/09/12 04:52:35;;;;;;;5.10;2.13;;;15.00;99.90;;;;;;2080321;28;20032;-71
2021/09/12 04:53:36;;;;;;;6.63;2.10;;;15.00;99.90;;;;;;2085708;28;20029;-71
2021/09/12 04:54:37;;;;;;;8.63;2.28;;;15.00;99.90;;;;;;2085599;28;20047;-71
2021/09/12 04:55:37;;;;;;;4.63;2.00;;;14.90;99.90;;;;;;2088164;28;20029;-71
2021/09/12 04:56:38;;;;;;;5.32;1.90;;;15.00;99.90;;;;;;2088615;28;20096;-71
2021/09/12 04:57:39;;;;;;;6.00;2.17;;;14.90;99.90;;;;;;2083566;28;20397;-71
2021/09/12 04:58:39;;;;;;;7.60;2.55;;;14.90;99.90;;;;;;2088722;28;20025;-71
2021/09/12 04:59:40;;;;;;;8.88;2.30;;;14.90;99.90;;;;;;2079791;28;20040;-71
2021/09/12 05:00:40;;;;;;;3.15;1.65;;;14.80;99.90;;;;;;2088834;28;20029;-71
2021/09/12 05:01:41;;;;;;;6.40;2.70;;;14.80;99.90;;;;;;2082677;28;20153;-71
2021/09/12 05:02:42;;;;;;;9.75;2.67;;;14.80;99.90;;;;;;2086199;28;20559;-71
2021/09/12 05:03:43;;;;;;;6.90;2.40;;;14.70;99.90;;;;;;2080733;28;20072;-71
2021/09/12 05:04:44;;;;;;;7.85;3.00;;;14.70;99.90;;;;;;2080617;28;20104;-72
2021/09/12 05:05:45;;;;;;;6.90;2.97;;;14.60;99.90;;;;;;2079922;28;20355;-72
2021/09/12 05:06:45;;;;;;;5.68;2.95;;;14.60;99.90;;;;;;2086384;28;20417;-71
2021/09/12 05:07:46;;;;;;;7.80;3.10;;;14.50;99.90;;;;;;2082433;28;20040;-71
2021/09/12 05:08:47;;;;;;;8.80;2.83;;;14.50;99.90;;;;;;2081350;28;20056;-71
2021/09/12 05:09:47;;;;;;;6.45;3.42;;;14.40;99.90;;;;;;2084743;28;20091;-72
2021/09/12 05:10:48;;;;;;;8.88;3.75;;;14.40;99.90;;;;;;2088506;28;20112;-72
2021/09/12 05:11:49;;;;;;;10.18;3.33;;;14.30;99.90;;;;;;2085292;28;20024;-71
2021/09/12 05:12:50;;;;;;;8.40;3.72;;;14.30;99.90;;;;;;2089629;28;20025;-73
2021/09/12 05:13:50;;;;;;;9.20;3.40;;;14.20;99.90;;;;;;2089194;28;20116;-71
2021/09/12 05:14:51;;;;;;;7.45;2.83;;;14.20;99.90;;;;;;2084880;28;20090;-72